createdAt,value
2018-12-09T00:00:27.217Z,98252.86
2018-12-09T00:02:55.619Z,98248.49
2018-12-09T00:05:23.776Z,98235.34
2018-12-09T00:07:51.907Z,98225.89
2018-12-09T00:10:20.049Z,98222.91
2018-12-09T00:12:48.849Z,98201.25
2018-12-09T00:15:17.010Z,98191.88
2018-12-09T00:17:45.251Z,98180.31
2018-12-09T00:20:13.433Z,98169.22
2018-12-09T00:22:41.653Z,98165.37
2018-12-09T00:25:09.859Z,98155.03
2018-12-09T00:27:38.459Z,98148.11
2018-12-09T00:30:06.799Z,98146.80
2018-12-09T00:32:34.902Z,98145.30
2018-12-09T00:35:03.280Z,98132.73
2018-12-09T00:37:31.453Z,98128.45
2018-12-09T00:39:59.575Z,98130.43
2018-12-09T00:42:27.779Z,98117.50
2018-12-09T00:44:55.894Z,98115.97
2018-12-09T00:47:25.044Z,98107.12
2018-12-09T00:49:53.204Z,98099.34
2018-12-09T00:52:21.324Z,98094.00
2018-12-09T00:54:49.494Z,98090.83
2018-12-09T00:57:17.616Z,98100.05
2018-12-09T00:59:45.718Z,98101.91
2018-12-09T01:02:14.076Z,98087.20
2018-12-09T01:04:42.226Z,98092.06
2018-12-09T01:07:10.532Z,98083.50
2018-12-09T01:09:38.918Z,98081.61
2018-12-09T01:12:07.118Z,98070.09
2018-12-09T01:14:35.423Z,98072.25
2018-12-09T01:17:03.845Z,98057.48
2018-12-09T01:19:32.217Z,98056.17
2018-12-09T01:22:00.354Z,98047.55
2018-12-09T01:24:28.484Z,98050.20
2018-12-09T01:26:56.770Z,98052.08
2018-12-09T01:29:25.086Z,98057.81
2018-12-09T01:31:53.240Z,98045.20
2018-12-09T01:34:21.405Z,98040.34
2018-12-09T01:36:49.825Z,98043.30
2018-12-09T01:39:18.212Z,98033.39
2018-12-09T01:41:46.387Z,98038.75
2018-12-09T01:44:15.449Z,98035.55
2018-12-09T01:46:43.815Z,98019.69
2018-12-09T01:49:12.131Z,98018.62
2018-12-09T01:51:40.427Z,98014.03
2018-12-09T01:54:13.223Z,98007.60
2018-12-09T01:56:41.681Z,98004.90
2018-12-09T01:59:09.832Z,97998.73
2018-12-09T02:01:38.305Z,98003.56
2018-12-09T02:04:07.252Z,98001.40
2018-12-09T02:06:35.967Z,97989.84
2018-12-09T02:09:07.775Z,97989.58
2018-12-09T02:11:36.328Z,97978.81
2018-12-09T02:14:04.725Z,97974.28
2018-12-09T02:16:33.819Z,97960.27
2018-12-09T02:19:19.669Z,97959.47
2018-12-09T02:21:48.459Z,97961.32
2018-12-09T02:24:17.216Z,97969.08
2018-12-09T02:26:45.757Z,97972.33
2018-12-09T02:29:14.367Z,97964.01
2018-12-09T02:31:43.008Z,97963.73
2018-12-09T02:34:11.502Z,97962.66
2018-12-09T02:36:40.590Z,97961.89
2018-12-09T02:39:10.732Z,97961.88
2018-12-09T02:41:39.282Z,97947.34
2018-12-09T02:44:07.536Z,97954.87
2018-12-09T02:46:36.762Z,97950.59
2018-12-09T02:49:05.165Z,97947.11
2018-12-09T02:51:33.686Z,97943.34
2018-12-09T02:54:02.163Z,97937.70
2018-12-09T02:56:30.479Z,97939.60
2018-12-09T02:58:58.693Z,97947.94
2018-12-09T03:01:27.152Z,97938.51
2018-12-09T03:03:55.321Z,97950.34
2018-12-09T03:06:23.820Z,97939.31
2018-12-09T03:08:52.284Z,97947.09
2018-12-09T03:11:20.610Z,97939.59
2018-12-09T03:13:48.752Z,97944.69
2018-12-09T03:16:16.979Z,97932.57
2018-12-09T03:18:45.150Z,97941.73
2018-12-09T03:21:13.415Z,97933.66
2018-12-09T03:23:41.721Z,97935.00
2018-12-09T03:26:10.057Z,97935.54
2018-12-09T03:28:38.230Z,97949.56
2018-12-09T03:31:06.521Z,97947.38
2018-12-09T03:33:34.728Z,97939.56
2018-12-09T03:36:03.848Z,97949.00
2018-12-09T03:38:32.897Z,97959.73
2018-12-09T03:41:02.291Z,97964.08
2018-12-09T03:43:31.291Z,97990.41
2018-12-09T03:45:59.444Z,97990.97
2018-12-09T03:48:27.737Z,97987.18
2018-12-09T03:50:55.829Z,97997.65
2018-12-09T03:53:24.195Z,97985.27
2018-12-09T03:55:52.499Z,97978.26
2018-12-09T03:58:20.891Z,97974.75
2018-12-09T04:00:49.217Z,97972.06
2018-12-09T04:03:17.679Z,97975.57
2018-12-09T04:05:45.798Z,97979.84
2018-12-09T04:08:14.132Z,97990.88
2018-12-09T04:10:42.421Z,97978.75
2018-12-09T04:13:10.567Z,97978.77
2018-12-09T04:15:40.715Z,97970.97
2018-12-09T04:18:09.453Z,97981.39
2018-12-09T04:20:37.688Z,97986.75
2018-12-09T04:23:06.779Z,97982.46
2018-12-09T04:25:34.987Z,97980.60
2018-12-09T04:28:03.566Z,97982.19
2018-12-09T04:30:31.739Z,97994.48
2018-12-09T04:32:59.894Z,97988.87
2018-12-09T04:35:29.084Z,97994.22
2018-12-09T04:37:57.340Z,98000.09
2018-12-09T04:40:25.714Z,97998.27
2018-12-09T04:42:54.114Z,98002.31
2018-12-09T04:45:22.266Z,97999.85
2018-12-09T04:47:50.826Z,98004.98
2018-12-09T04:50:19.011Z,98017.33
2018-12-09T04:52:47.742Z,98024.50
2018-12-09T04:55:16.074Z,98016.70
2018-12-09T04:57:44.442Z,98003.84
2018-12-09T05:00:29.776Z,98002.73
2018-12-09T05:02:58.105Z,98010.52
2018-12-09T05:05:26.276Z,98017.44
2018-12-09T05:07:54.671Z,98022.08
2018-12-09T05:10:22.883Z,98024.47
2018-12-09T05:12:51.108Z,98018.29
2018-12-09T05:15:19.286Z,98027.47
2018-12-09T05:17:47.616Z,98031.73
2018-12-09T05:20:16.429Z,98041.89
2018-12-09T05:22:44.813Z,98040.55
2018-12-09T05:25:13.681Z,98039.53
2018-12-09T05:27:41.840Z,98039.53
2018-12-09T05:30:10.140Z,98033.89
2018-12-09T05:32:38.523Z,98054.31
2018-12-09T05:35:07.787Z,98057.00
2018-12-09T05:37:36.548Z,98060.77
2018-12-09T05:40:05.363Z,98064.77
2018-12-09T05:42:33.593Z,98075.15
2018-12-09T05:45:01.926Z,98068.47
2018-12-09T05:47:30.322Z,98072.00
2018-12-09T05:49:58.507Z,98066.86
2018-12-09T05:52:26.730Z,98064.73
2018-12-09T05:54:55.074Z,98057.44
2018-12-09T05:57:25.593Z,98056.63
2018-12-09T05:59:53.897Z,98070.33
2018-12-09T06:02:56.892Z,98079.44
2018-12-09T06:05:25.441Z,98074.00
2018-12-09T06:07:53.853Z,98086.05
2018-12-09T06:10:22.264Z,98087.05
2018-12-09T06:12:50.435Z,98081.45
2018-12-09T06:15:19.028Z,98092.45
2018-12-09T06:17:47.360Z,98086.00
2018-12-09T06:20:15.577Z,98100.98
2018-12-09T06:22:43.932Z,98104.79
2018-12-09T06:25:12.415Z,98114.58
2018-12-09T06:27:40.653Z,98110.63
2018-12-09T06:30:10.876Z,98118.86
2018-12-09T06:32:39.076Z,98115.70
2018-12-09T06:35:08.177Z,98119.28
2018-12-09T06:37:36.488Z,98118.94
2018-12-09T06:40:05.533Z,98135.83
2018-12-09T06:42:34.325Z,98140.63
2018-12-09T06:45:03.235Z,98131.61
2018-12-09T06:47:31.350Z,98138.24
2018-12-09T06:49:59.508Z,98143.47
2018-12-09T06:52:27.665Z,98142.20
2018-12-09T06:54:56.453Z,98144.25
2018-12-09T06:57:25.281Z,98145.41
2018-12-09T06:59:54.416Z,98155.63
2018-12-09T07:02:22.890Z,98153.81
2018-12-09T07:04:51.039Z,98165.23
2018-12-09T07:07:19.605Z,98155.85
2018-12-09T07:09:47.935Z,98157.23
2018-12-09T07:12:16.121Z,98159.70
2018-12-09T07:14:44.435Z,98166.71
2018-12-09T07:17:19.494Z,98155.50
2018-12-09T07:19:47.729Z,98168.53
2018-12-09T07:22:15.976Z,98168.88
2018-12-09T07:24:44.372Z,98171.08
2018-12-09T07:27:12.721Z,98171.13
2018-12-09T07:29:41.049Z,98175.41
2018-12-09T07:32:09.251Z,98174.71
2018-12-09T07:34:38.434Z,98186.63
2018-12-09T07:37:06.796Z,98192.60
2018-12-09T07:39:35.119Z,98190.25
2018-12-09T07:42:03.494Z,98204.23
2018-12-09T07:44:31.760Z,98196.70
2018-12-09T07:47:00.063Z,98205.70
2018-12-09T07:49:28.260Z,98211.45
2018-12-09T07:51:56.601Z,98216.03
2018-12-09T07:54:24.897Z,98213.95
2018-12-09T07:56:53.213Z,98216.89
2018-12-09T07:59:21.520Z,98214.80
2018-12-09T08:01:49.824Z,98219.95
2018-12-09T08:04:17.968Z,98224.73
2018-12-09T08:06:46.162Z,98220.73
2018-12-09T08:09:14.346Z,98239.27
2018-12-09T08:11:42.640Z,98249.08
2018-12-09T08:14:10.793Z,98233.48
2018-12-09T08:16:39.051Z,98238.36
2018-12-09T08:19:07.555Z,98231.99
2018-12-09T08:21:36.389Z,98229.33
2018-12-09T08:24:04.662Z,98229.09
2018-12-09T08:26:32.891Z,98236.92
2018-12-09T08:29:01.100Z,98232.89
2018-12-09T08:31:29.475Z,98236.71
2018-12-09T08:33:57.766Z,98230.22
2018-12-09T08:36:25.962Z,98240.74
2018-12-09T08:38:54.276Z,98233.48
2018-12-09T08:41:22.628Z,98232.41
2018-12-09T08:43:50.881Z,98240.75
2018-12-09T08:46:19.310Z,98252.31
2018-12-09T08:48:47.776Z,98252.00
2018-12-09T08:51:15.922Z,98253.61
2018-12-09T08:53:44.133Z,98266.11
2018-12-09T08:56:12.511Z,98254.55
2018-12-09T08:58:40.813Z,98276.33
2018-12-09T09:01:09.095Z,98270.80
2018-12-09T09:03:37.300Z,98270.28
2018-12-09T09:06:05.472Z,98272.42
2018-12-09T09:08:33.741Z,98266.78
2018-12-09T09:11:02.023Z,98274.56
2018-12-09T09:13:30.151Z,98274.28
2018-12-09T09:15:58.447Z,98272.39
2018-12-09T09:18:26.755Z,98265.40
2018-12-09T09:20:54.901Z,98266.47
2018-12-09T09:23:23.123Z,98262.45
2018-12-09T09:25:51.217Z,98273.73
2018-12-09T09:28:19.470Z,98279.94
2018-12-09T09:30:47.694Z,98285.37
2018-12-09T09:33:15.859Z,98286.50
2018-12-09T09:35:44.030Z,98292.13
2018-12-09T09:38:12.296Z,98286.98
2018-12-09T09:40:40.499Z,98293.23
2018-12-09T09:43:08.723Z,98299.67
2018-12-09T09:45:36.828Z,98302.86
2018-12-09T09:48:05.230Z,98298.56
2018-12-09T09:50:33.427Z,98293.39
2018-12-09T09:53:01.676Z,98309.08
2018-12-09T09:55:29.817Z,98299.92
2018-12-09T09:57:58.021Z,98311.23
2018-12-09T10:00:27.189Z,98304.22
2018-12-09T10:02:56.169Z,98307.73
2018-12-09T10:05:24.415Z,98313.68
2018-12-09T10:07:53.102Z,98309.59
2018-12-09T10:10:21.315Z,98313.40
2018-12-09T10:12:50.143Z,98309.39
2018-12-09T10:15:19.001Z,98316.09
2018-12-09T10:17:47.679Z,98313.64
2018-12-09T10:20:15.827Z,98315.52
2018-12-09T10:22:44.025Z,98311.01
2018-12-09T10:25:12.227Z,98309.64
2018-12-09T10:27:40.439Z,98314.47
2018-12-09T10:30:09.383Z,98315.85
2018-12-09T10:32:37.657Z,98318.83
2018-12-09T10:35:06.777Z,98308.33
2018-12-09T10:37:35.027Z,98318.03
2018-12-09T10:40:04.796Z,98310.22
2018-12-09T10:42:33.738Z,98310.73
2018-12-09T10:45:01.950Z,98301.59
2018-12-09T10:47:30.113Z,98318.02
2018-12-09T10:49:58.285Z,98306.20
2018-12-09T10:52:26.545Z,98312.70
2018-12-09T10:54:54.876Z,98324.03
2018-12-09T10:57:24.202Z,98317.81
2018-12-09T10:59:52.475Z,98314.34
2018-12-09T11:02:20.708Z,98318.88
2018-12-09T11:04:48.957Z,98318.38
2018-12-09T11:07:17.178Z,98323.73
2018-12-09T11:09:45.510Z,98317.52
2018-12-09T11:12:14.262Z,98309.74
2018-12-09T11:14:42.481Z,98318.64
2018-12-09T11:17:10.621Z,98313.78
2018-12-09T11:19:38.783Z,98316.75
2018-12-09T11:22:07.008Z,98315.09
2018-12-09T11:24:35.247Z,98319.13
2018-12-09T11:27:03.496Z,98318.83
2018-12-09T11:29:31.649Z,98318.85
2018-12-09T11:31:59.865Z,98310.48
2018-12-09T11:34:27.919Z,98313.12
2018-12-09T11:36:56.141Z,98312.34
2018-12-09T11:39:24.326Z,98310.17
2018-12-09T11:41:52.502Z,98319.06
2018-12-09T11:44:20.694Z,98308.84
2018-12-09T11:46:48.908Z,98308.83
2018-12-09T11:49:17.084Z,98315.53
2018-12-09T11:51:45.329Z,98303.16
2018-12-09T11:54:13.547Z,98312.28
2018-12-09T11:56:42.854Z,98309.87
2018-12-09T11:59:11.958Z,98307.41
2018-12-09T12:01:40.703Z,98310.67
2018-12-09T12:04:08.888Z,98309.09
2018-12-09T12:06:37.118Z,98305.88
2018-12-09T12:09:06.432Z,98314.78
2018-12-09T12:11:34.626Z,98306.76
2018-12-09T12:14:03.353Z,98322.05
2018-12-09T12:16:31.717Z,98335.25
2018-12-09T12:19:00.167Z,98336.27
2018-12-09T12:21:28.335Z,98341.09
2018-12-09T12:23:56.530Z,98347.02
2018-12-09T12:26:24.767Z,98353.94
2018-12-09T12:28:53.038Z,98378.13
2018-12-09T12:31:21.315Z,98396.31
2018-12-09T12:33:50.642Z,98409.86
2018-12-09T12:36:19.446Z,98419.08
2018-12-09T12:38:47.567Z,98418.37
2018-12-09T12:41:15.719Z,98422.02
2018-12-09T12:43:44.617Z,98430.29
2018-12-09T12:46:12.796Z,98426.86
2018-12-09T12:48:40.958Z,98424.78
2018-12-09T12:51:09.133Z,98435.06
2018-12-09T12:53:37.328Z,98436.96
2018-12-09T12:56:05.525Z,98441.52
2018-12-09T12:58:33.680Z,98443.84
2018-12-09T13:01:01.920Z,98453.14
2018-12-09T13:03:30.224Z,98450.41
2018-12-09T13:05:59.401Z,98448.97
2018-12-09T13:08:27.740Z,98456.13
2018-12-09T13:10:55.969Z,98466.63
2018-12-09T13:13:24.154Z,98460.75
2018-12-09T13:15:52.340Z,98467.48
2018-12-09T13:18:20.492Z,98471.06
2018-12-09T13:20:48.692Z,98478.34
2018-12-09T13:23:16.942Z,98469.52
2018-12-09T13:25:45.604Z,98479.20
2018-12-09T13:28:13.782Z,98478.58
2018-12-09T13:30:41.944Z,98474.31
2018-12-09T13:33:10.204Z,98474.06
2018-12-09T13:35:38.494Z,98485.27
2018-12-09T13:38:06.686Z,98476.60
2018-12-09T13:40:34.908Z,98482.61
2018-12-09T13:43:03.202Z,98484.94
2018-12-09T13:45:31.462Z,98492.59
2018-12-09T13:48:00.394Z,98484.71
2018-12-09T13:50:28.826Z,98497.56
2018-12-09T13:52:57.089Z,98508.52
2018-12-09T13:55:25.267Z,98504.70
2018-12-09T13:57:54.185Z,98505.95
2018-12-09T14:00:23.392Z,98505.27
2018-12-09T14:02:51.673Z,98510.12
2018-12-09T14:05:19.849Z,98515.72
2018-12-09T14:07:48.057Z,98513.19
2018-12-09T14:10:16.453Z,98519.89
2018-12-09T14:12:44.727Z,98525.47
2018-12-09T14:15:13.070Z,98527.47
2018-12-09T14:17:41.343Z,98519.14
2018-12-09T14:20:10.244Z,98532.51
2018-12-09T14:22:38.425Z,98536.16
2018-12-09T14:25:07.575Z,98535.63
2018-12-09T14:27:36.578Z,98545.31
2018-12-09T14:30:06.915Z,98551.11
2018-12-09T14:32:35.503Z,98558.12
2018-12-09T14:35:06.115Z,98564.62
2018-12-09T14:37:34.365Z,98565.50
2018-12-09T14:40:03.421Z,98563.13
2018-12-09T14:42:31.538Z,98569.63
2018-12-09T14:44:59.715Z,98569.89
2018-12-09T14:47:27.883Z,98583.60
2018-12-09T14:49:56.120Z,98584.94
2018-12-09T14:52:24.329Z,98587.67
2018-12-09T14:54:52.595Z,98590.98
2018-12-09T14:57:20.798Z,98596.31
2018-12-09T14:59:48.941Z,98592.29
2018-12-09T15:02:17.190Z,98600.80
2018-12-09T15:04:45.399Z,98595.27
2018-12-09T15:07:13.567Z,98614.02
2018-12-09T15:09:41.780Z,98618.81
2018-12-09T15:12:10.854Z,98617.22
2018-12-09T15:14:39.146Z,98618.11
2018-12-09T15:17:07.387Z,98615.55
2018-12-09T15:19:35.716Z,98615.11
2018-12-09T15:22:04.172Z,98612.72
2018-12-09T15:24:32.441Z,98620.86
2018-12-09T15:27:00.576Z,98631.99
2018-12-09T15:29:28.763Z,98628.10
2018-12-09T15:31:56.938Z,98634.09
2018-12-09T15:34:25.160Z,98645.43
2018-12-09T15:36:53.308Z,98630.45
2018-12-09T15:39:21.462Z,98631.30
2018-12-09T15:41:49.636Z,98630.50
2018-12-09T15:44:17.835Z,98635.25
2018-12-09T15:46:46.036Z,98641.95
2018-12-09T15:49:14.930Z,98635.70
2018-12-09T15:51:43.142Z,98642.60
2018-12-09T15:54:11.726Z,98637.30
2018-12-09T15:56:39.870Z,98639.14
2018-12-09T15:59:08.060Z,98642.77
2018-12-09T16:01:36.388Z,98652.87
2018-12-09T16:04:04.583Z,98666.05
2018-12-09T16:06:32.723Z,98662.77
2018-12-09T16:09:00.861Z,98670.34
2018-12-09T16:11:29.111Z,98676.08
2018-12-09T16:13:57.289Z,98675.45
2018-12-09T16:16:25.466Z,98690.21
2018-12-09T16:18:53.947Z,98695.61
2018-12-09T16:21:22.241Z,98695.99
2018-12-09T16:23:50.440Z,98705.05
2018-12-09T16:26:18.561Z,98704.39
2018-12-09T16:28:46.740Z,98705.67
2018-12-09T16:31:14.935Z,98712.60
2018-12-09T16:33:43.124Z,98716.38
2018-12-09T16:36:11.333Z,98719.89
2018-12-09T16:38:39.443Z,98723.13
2018-12-09T16:41:07.601Z,98728.98
2018-12-09T16:43:35.774Z,98739.38
2018-12-09T16:46:04.016Z,98739.77
2018-12-09T16:48:32.202Z,98755.13
2018-12-09T16:51:00.399Z,98756.82
2018-12-09T16:53:28.625Z,98765.27
2018-12-09T16:55:56.908Z,98764.53
2018-12-09T16:58:25.035Z,98766.69
2018-12-09T17:00:53.233Z,98772.83
2018-12-09T17:03:21.400Z,98787.66
2018-12-09T17:05:49.938Z,98797.49
2018-12-09T17:08:18.149Z,98789.07
2018-12-09T17:10:46.283Z,98798.38
2018-12-09T17:13:14.443Z,98804.83
2018-12-09T17:15:42.594Z,98808.06
2018-12-09T17:18:10.918Z,98805.62
2018-12-09T17:20:39.503Z,98827.30
2018-12-09T17:23:07.688Z,98830.09
2018-12-09T17:25:35.842Z,98831.47
2018-12-09T17:28:10.802Z,98837.56
2018-12-09T17:30:39.108Z,98845.00
2018-12-09T17:33:07.348Z,98846.95
2018-12-09T17:35:35.521Z,98854.05
2018-12-09T17:38:03.734Z,98858.65
2018-12-09T17:40:31.935Z,98855.52
2018-12-09T17:43:00.123Z,98858.11
2018-12-09T17:45:28.327Z,98859.20
2018-12-09T17:47:56.572Z,98860.86
2018-12-09T17:50:24.738Z,98867.27
2018-12-09T17:52:52.892Z,98870.05
2018-12-09T17:55:21.587Z,98872.86
2018-12-09T17:57:49.765Z,98879.74
2018-12-09T18:00:17.963Z,98882.60
2018-12-09T18:02:46.355Z,98890.48
2018-12-09T18:05:14.587Z,98892.81
2018-12-09T18:07:43.432Z,98899.77
2018-12-09T18:10:11.620Z,98912.25
2018-12-09T18:12:47.717Z,98905.75
2018-12-09T18:15:14.491Z,98921.38
2018-12-09T18:17:43.000Z,98917.77
2018-12-09T18:20:11.315Z,98931.38
2018-12-09T18:22:39.541Z,98933.94
2018-12-09T18:25:07.977Z,98930.87
2018-12-09T18:27:36.270Z,98938.04
2018-12-09T18:30:05.148Z,98939.32
2018-12-09T18:32:33.352Z,98949.63
2018-12-09T18:35:01.579Z,98953.34
2018-12-09T18:37:29.865Z,98958.06
2018-12-09T18:39:58.322Z,98963.26
2018-12-09T18:42:26.507Z,98960.61
2018-12-09T18:44:55.231Z,98960.02
2018-12-09T18:47:23.639Z,98964.58
2018-12-09T18:49:51.843Z,98974.95
2018-12-09T18:52:20.184Z,98981.17
2018-12-09T18:54:48.545Z,98989.14
2018-12-09T18:57:16.824Z,98985.03
2018-12-09T18:59:45.390Z,98991.31
2018-12-09T19:02:14.181Z,99007.80
2018-12-09T19:04:42.629Z,99011.66
2018-12-09T19:07:11.010Z,99012.13
2018-12-09T19:09:39.326Z,99012.37
2018-12-09T19:12:07.708Z,99022.50
2018-12-09T19:14:35.872Z,99017.03
2018-12-09T19:17:04.060Z,99033.63
2018-12-09T19:19:32.200Z,99041.80
2018-12-09T19:22:00.448Z,99041.20
2018-12-09T19:24:28.697Z,99061.33
2018-12-09T19:26:57.072Z,99062.04
2018-12-09T19:29:25.364Z,99063.02
2018-12-09T19:31:53.699Z,99070.36
2018-12-09T19:34:21.840Z,99080.53
2018-12-09T19:36:50.118Z,99097.61
2018-12-09T19:39:18.372Z,99092.23
2018-12-09T19:41:46.976Z,99094.55
2018-12-09T19:44:15.361Z,99102.67
2018-12-09T19:46:43.630Z,99104.26
2018-12-09T19:49:11.911Z,99113.02
2018-12-09T19:51:40.363Z,99106.42
2018-12-09T19:54:08.607Z,99111.41
2018-12-09T19:56:36.810Z,99127.25
2018-12-09T19:59:05.074Z,99121.30
2018-12-09T20:01:33.525Z,99123.15
2018-12-09T20:04:01.778Z,99134.45
2018-12-09T20:06:30.178Z,99137.36
2018-12-09T20:08:58.435Z,99143.30
2018-12-09T20:11:26.669Z,99154.16
2018-12-09T20:13:54.920Z,99158.69
2018-12-09T20:16:23.139Z,99165.02
2018-12-09T20:18:51.375Z,99179.17
2018-12-09T20:21:19.565Z,99180.23
2018-12-09T20:23:47.807Z,99190.30
2018-12-09T20:26:16.061Z,99190.90
2018-12-09T20:28:44.527Z,99197.98
2018-12-09T20:31:12.763Z,99200.51
2018-12-09T20:33:40.979Z,99190.84
2018-12-09T20:36:09.277Z,99202.08
2018-12-09T20:38:37.486Z,99204.36
2018-12-09T20:41:06.331Z,99211.69
2018-12-09T20:43:34.719Z,99214.59
2018-12-09T20:46:03.068Z,99220.77
2018-12-09T20:48:31.277Z,99226.41
2018-12-09T20:50:59.535Z,99237.23
2018-12-09T20:53:27.731Z,99234.92
2018-12-09T20:55:55.978Z,99249.31
2018-12-09T20:58:24.261Z,99251.94
2018-12-09T21:00:52.707Z,99250.91
2018-12-09T21:03:21.005Z,99262.38
2018-12-09T21:05:50.249Z,99263.81
2018-12-09T21:08:18.435Z,99282.27
2018-12-09T21:10:46.652Z,99275.42
2018-12-09T21:13:14.829Z,99275.13
2018-12-09T21:15:43.106Z,99274.51
2018-12-09T21:18:11.364Z,99287.39
2018-12-09T21:20:39.546Z,99283.74
2018-12-09T21:23:07.816Z,99288.95
2018-12-09T21:25:35.981Z,99288.73
2018-12-09T21:28:04.216Z,99292.74
2018-12-09T21:30:32.347Z,99296.38
2018-12-09T21:33:00.527Z,99304.77
2018-12-09T21:35:29.598Z,99315.00
2018-12-09T21:37:57.877Z,99313.25
2018-12-09T21:43:13.870Z,99320.17
2018-12-09T21:45:42.425Z,99327.80
2018-12-09T21:48:12.408Z,99323.95
2018-12-09T21:50:40.732Z,99339.56
2018-12-09T21:53:08.937Z,99344.19
2018-12-09T21:55:37.176Z,99345.66
2018-12-09T21:58:05.318Z,99339.44
2018-12-09T22:00:33.538Z,99343.67
2018-12-09T22:03:01.728Z,99351.69
2018-12-09T22:05:30.108Z,99355.27
2018-12-09T22:07:58.261Z,99361.97
2018-12-09T22:10:26.474Z,99373.73
2018-12-09T22:12:54.813Z,99378.09
2018-12-09T22:15:23.092Z,99377.66
2018-12-09T22:17:51.208Z,99388.31
2018-12-09T22:20:19.461Z,99387.88
2018-12-09T22:22:47.568Z,99390.64
2018-12-09T22:25:15.787Z,99384.97
2018-12-09T22:27:43.941Z,99409.91
2018-12-09T22:30:12.255Z,99415.33
2018-12-09T22:32:41.447Z,99417.54
2018-12-09T22:35:09.728Z,99419.48
2018-12-09T22:37:37.863Z,99421.21
2018-12-09T22:40:06.969Z,99424.08
2018-12-09T22:42:35.117Z,99422.86
2018-12-09T22:45:03.847Z,99431.95
2018-12-09T22:47:32.053Z,99441.06
2018-12-09T22:50:00.348Z,99450.44
2018-12-09T22:52:28.576Z,99446.47
2018-12-09T22:54:56.877Z,99450.98
2018-12-09T22:57:25.121Z,99461.30
2018-12-09T22:59:53.294Z,99461.47
2018-12-09T23:02:27.102Z,99464.05
2018-12-09T23:04:55.212Z,99466.17
2018-12-09T23:07:29.098Z,99464.62
2018-12-09T23:09:57.208Z,99470.64
2018-12-09T23:12:25.326Z,99481.69
2018-12-09T23:14:53.486Z,99484.80
2018-12-09T23:17:21.651Z,99490.38
2018-12-09T23:19:49.881Z,99495.36
2018-12-09T23:22:18.117Z,99494.92
2018-12-09T23:24:46.272Z,99493.31
2018-12-09T23:27:14.464Z,99493.66
2018-12-09T23:29:42.599Z,99507.78
2018-12-09T23:32:10.728Z,99503.76
2018-12-09T23:34:38.977Z,99499.28
2018-12-09T23:37:07.142Z,99504.98
2018-12-09T23:39:35.286Z,99502.36
2018-12-09T23:42:03.608Z,99506.72
2018-12-09T23:44:31.786Z,99504.47
2018-12-09T23:47:00.071Z,99516.19
2018-12-09T23:49:28.243Z,99514.02
2018-12-09T23:51:56.402Z,99521.18
2018-12-09T23:54:24.535Z,99527.37
2018-12-09T23:56:52.673Z,99534.56
2018-12-09T23:59:20.882Z,99532.47
